createdAt,value
2018-09-08T00:01:41.807Z,12.87
2018-09-08T00:04:10.840Z,12.60
2018-09-08T00:06:39.893Z,12.53
2018-09-08T00:09:10.063Z,13.17
2018-09-08T00:11:39.289Z,13.33
2018-09-08T00:14:08.088Z,13.47
2018-09-08T00:16:42.079Z,13.17
2018-09-08T00:19:16.251Z,13.17
2018-09-08T00:21:50.139Z,13.10
2018-09-08T00:24:24.027Z,12.37
2018-09-08T00:26:51.929Z,13.00
2018-09-08T00:29:27.224Z,13.30
2018-09-08T00:31:57.395Z,13.90
2018-09-08T00:34:26.338Z,14.33
2018-09-08T00:36:55.330Z,14.97
2018-09-08T00:39:24.682Z,14.40
2018-09-08T00:41:53.843Z,14.00
2018-09-08T00:44:22.674Z,13.57
2018-09-08T00:46:51.679Z,14.53
2018-09-08T00:49:20.863Z,15.57
2018-09-08T00:51:49.483Z,15.43
2018-09-08T00:54:18.246Z,15.77
2018-09-08T00:56:47.542Z,14.97
2018-09-08T00:59:16.374Z,16.10
2018-09-08T01:01:45.494Z,14.33
2018-09-08T01:04:14.512Z,15.20
2018-09-08T01:06:43.681Z,14.23
2018-09-08T01:09:12.842Z,14.77
2018-09-08T01:11:41.640Z,15.50
2018-09-08T01:14:10.715Z,15.83
2018-09-08T01:16:39.938Z,15.70
2018-09-08T01:19:09.110Z,14.00
2018-09-08T01:21:37.854Z,14.73
2018-09-08T01:24:06.509Z,15.17
2018-09-08T01:26:35.950Z,14.30
2018-09-08T01:29:05.038Z,15.20
2018-09-08T01:31:34.036Z,13.73
2018-09-08T01:34:03.382Z,14.90
2018-09-08T01:36:32.204Z,15.10
2018-09-08T01:39:01.425Z,15.20
2018-09-08T01:41:30.756Z,14.07
2018-09-08T01:43:59.711Z,16.23
2018-09-08T01:46:28.404Z,14.70
2018-09-08T01:48:57.770Z,14.63
2018-09-08T01:51:26.703Z,14.27
2018-09-08T01:53:55.307Z,14.97
2018-09-08T01:56:24.419Z,16.13
2018-09-08T01:58:53.160Z,15.17
2018-09-08T02:01:21.997Z,15.27
2018-09-08T02:03:51.135Z,15.00
2018-09-08T02:06:20.056Z,16.07
2018-09-08T02:08:49.149Z,16.20
2018-09-08T02:11:18.030Z,15.17
2018-09-08T02:13:47.117Z,15.77
2018-09-08T02:16:16.378Z,15.17
2018-09-08T02:18:45.330Z,15.00
2018-09-08T02:21:14.066Z,15.63
2018-09-08T02:23:42.950Z,15.07
2018-09-08T02:26:12.007Z,15.43
2018-09-08T02:28:40.797Z,16.57
2018-09-08T02:31:09.859Z,16.37
2018-09-08T02:33:38.942Z,16.33
2018-09-08T02:36:08.074Z,16.23
2018-09-08T02:38:37.024Z,15.57
2018-09-08T02:41:06.279Z,16.07
2018-09-08T02:43:35.277Z,16.83
2018-09-08T02:46:04.542Z,16.50
2018-09-08T02:48:33.290Z,16.43
2018-09-08T02:51:00.659Z,15.47
2018-09-08T02:53:28.541Z,16.87
2018-09-08T02:55:55.989Z,17.73
2018-09-08T02:58:23.502Z,17.07
2018-09-08T03:00:50.937Z,18.27
2018-09-08T03:03:18.418Z,16.90
2018-09-08T03:05:45.872Z,18.27
2018-09-08T03:08:13.566Z,19.57
2018-09-08T03:10:40.936Z,17.13
2018-09-08T03:13:08.343Z,18.47
2018-09-08T03:15:36.032Z,18.07
2018-09-08T03:18:03.474Z,16.27
2018-09-08T03:20:30.834Z,17.20
2018-09-08T03:22:58.298Z,18.83
2018-09-08T03:25:25.698Z,17.27
2018-09-08T03:27:53.049Z,17.90
2018-09-08T03:30:20.591Z,17.60
2018-09-08T03:32:48.127Z,18.73
2018-09-08T03:35:15.558Z,20.23
2018-09-08T03:37:43.061Z,18.80
2018-09-08T03:40:10.600Z,17.47
2018-09-08T03:42:38.015Z,17.87
2018-09-08T03:45:05.530Z,18.23
2018-09-08T03:47:32.876Z,18.47
2018-09-08T03:50:00.334Z,17.87
2018-09-08T03:52:27.839Z,19.17
2018-09-08T03:54:55.186Z,19.47
2018-09-08T03:57:22.706Z,19.67
2018-09-08T03:59:50.202Z,20.53
2018-09-08T04:02:17.571Z,18.03
2018-09-08T04:04:46.479Z,18.93
2018-09-08T04:07:16.070Z,19.50
2018-09-08T04:09:45.012Z,20.20
2018-09-08T04:12:14.007Z,18.77
2018-09-08T04:14:43.228Z,19.53
2018-09-08T04:17:12.232Z,18.67
2018-09-08T04:19:40.895Z,28.73
2018-09-08T04:22:09.705Z,21.40
2018-09-08T04:24:38.974Z,21.23
2018-09-08T04:27:07.966Z,21.80
2018-09-08T04:29:37.125Z,25.53
2018-09-08T04:32:06.111Z,25.77
2018-09-08T04:34:35.024Z,24.87
2018-09-08T04:37:04.373Z,24.90
2018-09-08T04:39:33.554Z,24.07
2018-09-08T04:42:02.392Z,24.40
2018-09-08T04:44:31.531Z,24.00
2018-09-08T04:47:00.366Z,22.47
2018-09-08T04:49:29.175Z,22.77
2018-09-08T04:51:57.886Z,23.10
2018-09-08T04:54:26.917Z,25.50
2018-09-08T04:56:55.847Z,24.70
2018-09-08T04:59:24.619Z,26.37
2018-09-08T05:01:53.323Z,25.87
2018-09-08T05:04:22.174Z,25.07
2018-09-08T05:06:51.518Z,23.93
2018-09-08T05:09:20.463Z,24.90
2018-09-08T05:11:49.581Z,25.90
2018-09-08T05:14:19.084Z,25.63
2018-09-08T05:16:47.830Z,28.33
2018-09-08T05:19:16.591Z,27.50
2018-09-08T05:21:45.572Z,30.10
2018-09-08T05:24:14.728Z,27.80
2018-09-08T05:26:43.840Z,28.33
2018-09-08T05:29:12.923Z,28.03
2018-09-08T05:31:41.758Z,26.97
2018-09-08T05:34:10.805Z,29.00
2018-09-08T05:36:40.315Z,28.70
2018-09-08T05:39:09.315Z,26.70
2018-09-08T05:41:38.350Z,22.93
2018-09-08T05:44:07.168Z,22.43
2018-09-08T05:46:36.145Z,24.10
2018-09-08T05:49:05.076Z,22.20
2018-09-08T05:51:34.307Z,22.13
2018-09-08T05:54:03.129Z,20.93
2018-09-08T05:56:31.902Z,20.40
2018-09-08T05:59:01.274Z,21.40
2018-09-08T06:01:30.115Z,20.73
2018-09-08T06:03:58.995Z,22.50
2018-09-08T06:06:28.090Z,19.97
2018-09-08T06:08:56.828Z,22.13
2018-09-08T06:11:25.733Z,20.97
2018-09-08T06:13:54.911Z,20.13
2018-09-08T06:16:23.647Z,20.13
2018-09-08T06:18:53.030Z,23.00
2018-09-08T06:21:22.037Z,21.73
2018-09-08T06:23:50.796Z,21.83
2018-09-08T06:26:19.636Z,22.17
2018-09-08T06:28:48.939Z,21.70
2018-09-08T06:31:17.832Z,21.50
2018-09-08T06:33:46.823Z,21.23
2018-09-08T06:36:16.187Z,19.50
2018-09-08T06:38:45.272Z,17.97
2018-09-08T06:41:14.096Z,19.80
2018-09-08T06:43:43.573Z,18.20
2018-09-08T06:46:12.636Z,18.53
2018-09-08T06:48:41.451Z,17.53
2018-09-08T06:51:10.278Z,19.27
2018-09-08T06:53:39.140Z,18.60
2018-09-08T06:56:08.422Z,18.67
2018-09-08T06:58:37.525Z,18.43
2018-09-08T07:01:06.357Z,18.13
2018-09-08T07:03:35.459Z,18.67
2018-09-08T07:06:04.945Z,19.80
2018-09-08T07:08:33.889Z,18.10
2018-09-08T07:11:02.760Z,16.20
2018-09-08T07:13:32.219Z,17.13
2018-09-08T07:16:00.985Z,16.43
2018-09-08T07:18:30.015Z,17.93
2018-09-08T07:20:59.059Z,16.50
2018-09-08T07:23:27.886Z,16.50
2018-09-08T07:25:56.976Z,14.23
2018-09-08T07:28:26.390Z,13.57
2018-09-08T07:30:55.491Z,14.97
2018-09-08T07:33:24.880Z,14.13
2018-09-08T07:35:53.742Z,14.70
2018-09-08T07:38:22.663Z,12.90
2018-09-08T07:40:51.976Z,14.43
2018-09-08T07:43:20.743Z,12.53
2018-09-08T07:45:49.800Z,13.40
2018-09-08T07:48:18.736Z,12.80
2018-09-08T07:50:48.056Z,13.17
2018-09-08T07:53:16.926Z,12.63
2018-09-08T07:55:46.145Z,13.17
2018-09-08T07:58:15.062Z,12.40
2018-09-08T08:00:43.994Z,13.63
2018-09-08T08:03:13.219Z,13.97
2018-09-08T08:05:42.549Z,13.87
2018-09-08T08:08:11.336Z,12.37
2018-09-08T08:10:40.291Z,11.97
2018-09-08T08:13:09.503Z,12.33
2018-09-08T08:15:38.180Z,12.23
2018-09-08T08:18:07.188Z,12.67
2018-09-08T08:20:36.406Z,12.33
2018-09-08T08:23:05.202Z,12.97
2018-09-08T08:25:33.832Z,12.50
2018-09-08T08:28:02.972Z,11.20
2018-09-08T08:30:31.689Z,12.37
2018-09-08T08:33:00.636Z,12.77
2018-09-08T08:35:29.886Z,12.37
2018-09-08T08:37:58.673Z,12.33
2018-09-08T08:40:27.462Z,11.37
2018-09-08T08:42:56.546Z,11.73
2018-09-08T08:45:25.621Z,11.77
2018-09-08T08:47:54.903Z,11.50
2018-09-08T08:50:34.982Z,11.40
2018-09-08T08:53:14.708Z,11.27
2018-09-08T08:55:43.404Z,10.20
2018-09-08T08:58:12.216Z,11.03
2018-09-08T09:00:41.603Z,10.90
2018-09-08T09:03:10.627Z,9.90
2018-09-08T09:05:39.564Z,10.77
2018-09-08T09:08:08.477Z,10.10
2018-09-08T09:10:37.677Z,10.43
2018-09-08T09:13:07.058Z,9.33
2018-09-08T09:15:36.237Z,9.33
2018-09-08T09:18:04.628Z,10.27
2018-09-08T09:20:44.142Z,8.73
2018-09-08T09:25:30.743Z,9.73
2018-09-08T09:27:59.462Z,8.83
2018-09-08T09:30:28.390Z,8.50
2018-09-08T09:32:57.947Z,8.65
2018-09-08T09:35:26.894Z,10.18
2018-09-08T09:37:55.954Z,9.65
2018-09-08T09:40:24.811Z,9.43
2018-09-08T09:42:53.773Z,10.28
2018-09-08T09:45:22.914Z,9.35
2018-09-08T09:47:51.925Z,8.75
2018-09-08T09:50:20.536Z,9.08
2018-09-08T09:52:49.221Z,8.43
2018-09-08T09:55:18.009Z,8.70
2018-09-08T09:57:46.923Z,8.98
2018-09-08T10:00:20.759Z,9.83
2018-09-08T10:02:49.719Z,8.20
2018-09-08T10:05:25.034Z,10.78
2018-09-08T10:07:55.024Z,8.83
2018-09-08T10:10:27.452Z,8.75
2018-09-08T10:12:57.294Z,8.75
2018-09-08T10:15:26.396Z,9.00
2018-09-08T10:17:55.357Z,8.95
2018-09-08T10:20:24.527Z,7.83
2018-09-08T10:22:53.346Z,8.85
2018-09-08T10:25:22.214Z,9.08
2018-09-08T10:27:51.385Z,8.75
2018-09-08T10:30:21.016Z,7.92
2018-09-08T10:32:50.004Z,8.23
2018-09-08T10:35:18.786Z,9.28
2018-09-08T10:37:47.835Z,8.23
2018-09-08T10:40:16.765Z,8.48
2018-09-08T10:42:45.616Z,8.80
2018-09-08T10:45:14.875Z,7.65
2018-09-08T10:47:44.103Z,8.80
2018-09-08T10:50:12.962Z,8.20
2018-09-08T10:52:44.357Z,9.13
2018-09-08T10:55:13.123Z,9.70
2018-09-08T10:57:41.926Z,8.55
2018-09-08T11:00:11.843Z,8.33
2018-09-08T11:02:41.345Z,9.40
2018-09-08T11:05:10.205Z,9.35
2018-09-08T11:07:39.186Z,8.83
2018-09-08T11:10:08.350Z,7.85
2018-09-08T11:12:37.287Z,8.03
2018-09-08T11:15:07.235Z,7.87
2018-09-08T11:17:36.501Z,8.78
2018-09-08T11:20:05.852Z,8.10
2018-09-08T11:22:34.630Z,8.90
2018-09-08T11:25:03.395Z,8.83
2018-09-08T11:27:32.530Z,8.60
2018-09-08T11:30:01.248Z,8.90
2018-09-08T11:32:30.107Z,8.25
2018-09-08T11:34:59.168Z,8.40
2018-09-08T11:37:28.235Z,8.60
2018-09-08T11:39:57.031Z,10.23
2018-09-08T11:42:26.058Z,8.60
2018-09-08T11:44:55.078Z,9.63
2018-09-08T11:47:23.855Z,8.70
2018-09-08T11:49:52.762Z,9.15
2018-09-08T11:52:21.538Z,8.95
2018-09-08T11:54:50.234Z,8.18
2018-09-08T11:57:19.150Z,8.30
2018-09-08T11:59:48.113Z,8.48
2018-09-08T12:02:17.241Z,8.70
2018-09-08T12:04:46.212Z,7.33
2018-09-08T12:07:15.195Z,6.92
2018-09-08T12:09:44.249Z,6.60
2018-09-08T12:12:13.385Z,6.70
2018-09-08T12:14:42.358Z,6.42
2018-09-08T12:17:11.437Z,6.00
2018-09-08T12:19:40.110Z,6.00
2018-09-08T12:22:08.944Z,7.67
2018-09-08T12:24:37.765Z,7.08
2018-09-08T12:27:06.709Z,7.12
2018-09-08T12:29:35.845Z,6.60
2018-09-08T12:32:04.696Z,6.70
2018-09-08T12:34:33.628Z,7.70
2018-09-08T12:37:02.467Z,7.08
2018-09-08T12:39:38.170Z,7.15
2018-09-08T12:42:07.217Z,6.83
2018-09-08T12:44:36.267Z,6.95
2018-09-08T12:47:05.502Z,8.18
2018-09-08T12:49:34.224Z,7.28
2018-09-08T12:52:02.997Z,7.20
2018-09-08T12:54:31.814Z,8.45
2018-09-08T12:57:00.874Z,7.70
2018-09-08T12:59:29.776Z,9.40
2018-09-08T13:01:58.887Z,8.55
2018-09-08T13:04:27.932Z,7.90
2018-09-08T13:06:56.686Z,7.87
2018-09-08T13:09:25.678Z,8.20
2018-09-08T13:11:54.381Z,8.80
2018-09-08T13:14:23.236Z,9.88
2018-09-08T13:16:52.107Z,8.10
2018-09-08T13:19:20.888Z,8.75
2018-09-08T13:21:49.806Z,8.93
2018-09-08T13:24:18.534Z,8.93
2018-09-08T13:26:47.541Z,8.25
2018-09-08T13:29:16.692Z,8.35
2018-09-08T13:31:45.521Z,8.63
2018-09-08T13:34:14.753Z,8.38
2018-09-08T13:36:43.614Z,8.90
2018-09-08T13:39:12.604Z,6.87
2018-09-08T13:41:41.743Z,8.50
2018-09-08T13:44:10.741Z,8.58
2018-09-08T13:46:39.680Z,7.70
2018-09-08T13:49:08.503Z,8.28
2018-09-08T13:51:37.348Z,8.35
2018-09-08T13:54:06.300Z,8.83
2018-09-08T13:56:35.074Z,7.85
2018-09-08T13:59:04.115Z,7.37
2018-09-08T14:01:32.976Z,7.55
2018-09-08T14:04:02.196Z,7.35
2018-09-08T14:06:30.999Z,7.55
2018-09-08T14:08:59.941Z,7.70
2018-09-08T14:11:28.806Z,8.10
2018-09-08T14:13:57.818Z,8.43
2018-09-08T14:16:26.681Z,7.87
2018-09-08T14:18:55.414Z,7.80
2018-09-08T14:21:24.090Z,7.22
2018-09-08T14:23:52.794Z,7.37
2018-09-08T14:26:21.669Z,8.15
2018-09-08T14:28:50.423Z,8.05
2018-09-08T14:31:19.491Z,7.87
2018-09-08T14:33:48.838Z,7.03
2018-09-08T14:36:17.754Z,7.90
2018-09-08T14:38:46.640Z,7.10
2018-09-08T14:41:15.652Z,9.65
2018-09-08T14:43:44.792Z,8.43
2018-09-08T14:46:14.201Z,8.98
2018-09-08T14:48:42.899Z,8.78
2018-09-08T14:51:11.679Z,9.00
2018-09-08T14:53:40.385Z,7.62
2018-09-08T14:56:09.618Z,9.70
2018-09-08T14:58:38.532Z,8.75
2018-09-08T15:01:07.991Z,9.28
2018-09-08T15:03:36.942Z,9.00
2018-09-08T15:06:05.947Z,9.35
2018-09-08T15:08:35.026Z,9.33
2018-09-08T15:11:04.143Z,8.45
2018-09-08T15:13:33.158Z,8.28
2018-09-08T15:16:01.931Z,8.78
2018-09-08T15:18:30.659Z,8.98
2018-09-08T15:20:59.382Z,7.17
2018-09-08T15:23:28.447Z,7.62
2018-09-08T15:25:57.531Z,7.10
2018-09-08T15:28:27.075Z,7.08
2018-09-08T15:30:55.923Z,6.92
2018-09-08T15:33:25.103Z,6.37
2018-09-08T15:35:54.102Z,6.45
2018-09-08T15:38:23.094Z,7.33
2018-09-08T15:40:52.274Z,7.47
2018-09-08T15:43:21.071Z,6.85
2018-09-08T15:45:49.964Z,6.58
2018-09-08T15:48:18.753Z,7.03
2018-09-08T15:50:47.515Z,8.25
2018-09-08T15:53:16.339Z,8.00
2018-09-08T15:55:45.174Z,8.50
2018-09-08T15:58:14.169Z,9.43
2018-09-08T16:00:42.935Z,8.53
2018-09-08T16:03:12.329Z,8.73
2018-09-08T16:05:41.152Z,8.67
2018-09-08T16:08:09.982Z,9.23
2018-09-08T16:10:39.039Z,9.10
2018-09-08T16:13:08.871Z,8.93
2018-09-08T16:15:38.122Z,8.63
2018-09-08T16:18:06.871Z,9.03
2018-09-08T16:20:35.566Z,8.60
2018-09-08T16:23:04.549Z,8.17
2018-09-08T16:25:33.637Z,9.13
2018-09-08T16:28:02.557Z,9.27
2018-09-08T16:30:31.368Z,8.70
2018-09-08T16:33:00.076Z,8.73
2018-09-08T16:35:29.234Z,9.07
2018-09-08T16:37:58.159Z,9.03
2018-09-08T16:40:27.070Z,9.07
2018-09-08T16:42:55.909Z,8.87
2018-09-08T16:45:24.908Z,9.07
2018-09-08T16:47:53.687Z,9.53
2018-09-08T16:50:22.335Z,9.50
2018-09-08T16:52:51.301Z,8.63
2018-09-08T16:55:20.601Z,9.43
2018-09-08T16:57:49.544Z,8.67
2018-09-08T17:00:18.260Z,9.63
2018-09-08T17:02:47.274Z,8.57
2018-09-08T17:05:16.157Z,9.57
2018-09-08T17:07:45.076Z,9.93
2018-09-08T17:10:13.821Z,10.50
2018-09-08T17:12:42.561Z,10.40
2018-09-08T17:15:11.461Z,10.47
2018-09-08T17:17:40.290Z,10.17
2018-09-08T17:20:08.990Z,11.17
2018-09-08T17:22:38.009Z,10.10
2018-09-08T17:25:07.111Z,10.40
2018-09-08T17:27:36.311Z,10.93
2018-09-08T17:30:05.768Z,10.40
2018-09-08T17:32:34.878Z,10.83
2018-09-08T17:35:03.903Z,10.87
2018-09-08T17:37:32.931Z,11.07
2018-09-08T17:40:01.927Z,10.93
2018-09-08T17:42:30.876Z,10.83
2018-09-08T17:44:59.822Z,11.00
2018-09-08T17:47:28.616Z,11.90
2018-09-08T17:49:57.424Z,11.43
2018-09-08T17:52:26.379Z,11.40
2018-09-08T17:54:55.432Z,10.63
2018-09-08T17:57:24.330Z,11.10
2018-09-08T17:59:53.215Z,11.47
2018-09-08T18:02:22.436Z,12.07
2018-09-08T18:04:51.586Z,11.67
2018-09-08T18:07:20.472Z,11.27
2018-09-08T18:09:49.223Z,12.10
2018-09-08T18:12:18.311Z,12.27
2018-09-08T18:14:47.313Z,12.43
2018-09-08T18:17:16.216Z,11.23
2018-09-08T18:19:45.043Z,13.00
2018-09-08T18:22:13.781Z,12.07
2018-09-08T18:24:42.855Z,12.23
2018-09-08T18:27:11.839Z,12.67
2018-09-08T18:29:40.813Z,13.30
2018-09-08T18:32:09.735Z,12.53
2018-09-08T18:34:38.997Z,13.00
2018-09-08T18:37:08.205Z,12.87
2018-09-08T18:39:37.296Z,13.30
2018-09-08T18:42:05.943Z,12.90
2018-09-08T18:44:34.919Z,14.20
2018-09-08T18:47:03.701Z,12.70
2018-09-08T18:49:32.449Z,13.60
2018-09-08T18:52:01.327Z,13.77
2018-09-08T18:54:30.137Z,13.37
2018-09-08T18:56:58.939Z,14.17
2018-09-08T18:59:28.076Z,14.37
2018-09-08T19:01:57.360Z,13.37
2018-09-08T19:04:26.516Z,14.53
2018-09-08T19:06:55.427Z,14.10
2018-09-08T19:09:24.201Z,13.73
2018-09-08T19:11:53.127Z,15.20
2018-09-08T19:14:26.959Z,18.80
2018-09-08T19:16:55.685Z,15.37
2018-09-08T19:19:24.295Z,13.50
2018-09-08T19:21:53.407Z,14.20
2018-09-08T19:24:27.506Z,15.17
2018-09-08T19:26:56.532Z,15.63
2018-09-08T19:29:30.452Z,15.63
2018-09-08T19:31:59.396Z,14.70
2018-09-08T19:34:28.226Z,15.80
2018-09-08T19:36:57.381Z,15.57
2018-09-08T19:39:26.609Z,14.47
2018-09-08T19:41:55.497Z,14.63
2018-09-08T19:44:24.279Z,14.30
2018-09-08T19:46:58.140Z,15.27
2018-09-08T19:49:26.971Z,15.97
2018-09-08T19:51:55.941Z,15.40
2018-09-08T19:54:24.934Z,14.73
2018-09-08T19:56:58.862Z,14.90
2018-09-08T19:59:27.623Z,16.00
2018-09-08T20:01:56.519Z,16.13
2018-09-08T20:04:25.635Z,15.03
2018-09-08T20:06:54.658Z,15.13
2018-09-08T20:09:23.743Z,15.27
2018-09-08T20:11:52.720Z,15.77
2018-09-08T20:14:21.635Z,15.60
2018-09-08T20:16:50.343Z,16.27
2018-09-08T20:19:19.110Z,15.33
2018-09-08T20:21:48.134Z,15.83
2018-09-08T20:24:17.113Z,16.20
2018-09-08T20:26:46.266Z,16.33
2018-09-08T20:29:15.168Z,16.30
2018-09-08T20:31:44.199Z,16.33
2018-09-08T20:34:13.230Z,16.17
2018-09-08T20:36:42.238Z,14.10
2018-09-08T20:39:11.064Z,16.73
2018-09-08T20:41:40.158Z,16.43
2018-09-08T20:44:08.898Z,17.47
2018-09-08T20:46:37.626Z,17.53
2018-09-08T20:49:06.594Z,17.13
2018-09-08T20:51:35.834Z,16.87
2018-09-08T20:54:04.954Z,16.83
2018-09-08T20:56:33.718Z,16.63
2018-09-08T20:59:02.467Z,16.87
2018-09-08T21:01:31.563Z,17.50
2018-09-08T21:04:00.398Z,16.30
2018-09-08T21:06:29.495Z,17.93
2018-09-08T21:08:58.442Z,16.83
2018-09-08T21:11:27.323Z,16.60
2018-09-08T21:13:56.034Z,17.53
2018-09-08T21:16:25.023Z,17.47
2018-09-08T21:18:53.909Z,17.73
2018-09-08T21:21:23.882Z,17.73
2018-09-08T21:23:52.835Z,17.53
2018-09-08T21:26:21.745Z,16.47
2018-09-08T21:28:50.595Z,16.93
2018-09-08T21:31:19.735Z,17.20
2018-09-08T21:33:48.792Z,17.93
2018-09-08T21:36:17.586Z,18.30
2018-09-08T21:38:46.609Z,17.70
2018-09-08T21:41:15.392Z,17.93
2018-09-08T21:43:44.310Z,18.03
2018-09-08T21:46:13.111Z,18.03
2018-09-08T21:48:41.915Z,18.63
2018-09-08T21:51:11.047Z,18.03
2018-09-08T21:53:40.211Z,17.87
2018-09-08T21:56:09.127Z,18.63
2018-09-08T21:58:37.928Z,18.20
2018-09-08T22:01:12.132Z,17.77
2018-09-08T22:03:40.966Z,18.87
2018-09-08T22:06:10.279Z,17.67
2018-09-08T22:08:39.979Z,17.87
2018-09-08T22:11:09.501Z,18.50
2018-09-08T22:13:38.360Z,17.10
2018-09-08T22:16:07.176Z,16.93
2018-09-08T22:18:36.218Z,17.20
2018-09-08T22:21:05.262Z,18.43
2018-09-08T22:23:34.383Z,18.50
2018-09-08T22:26:03.035Z,17.67
2018-09-08T22:28:32.187Z,17.70
2018-09-08T22:31:01.325Z,16.47
2018-09-08T22:33:30.245Z,17.23
2018-09-08T22:35:59.147Z,18.13
2018-09-08T22:38:28.266Z,17.17
2018-09-08T22:40:57.467Z,16.03
2018-09-08T22:43:26.190Z,17.27
2018-09-08T22:45:54.875Z,17.67
2018-09-08T22:48:23.873Z,18.00
2018-09-08T22:50:52.812Z,17.17
2018-09-08T22:53:21.611Z,17.60
2018-09-08T22:55:50.617Z,18.17
2018-09-08T22:58:19.498Z,17.07
2018-09-08T23:00:48.400Z,17.70
2018-09-08T23:03:17.442Z,16.57
2018-09-08T23:05:46.382Z,18.50
2018-09-08T23:08:15.218Z,17.17
2018-09-08T23:10:43.887Z,17.43
2018-09-08T23:13:12.648Z,17.90
2018-09-08T23:15:41.483Z,16.63
2018-09-08T23:18:10.440Z,18.73
2018-09-08T23:20:39.363Z,18.37
2018-09-08T23:23:08.298Z,17.80
2018-09-08T23:25:37.365Z,16.37
2018-09-08T23:28:06.151Z,18.30
2018-09-08T23:30:35.217Z,17.43
2018-09-08T23:33:04.198Z,17.50
2018-09-08T23:35:33.207Z,17.00
2018-09-08T23:38:01.930Z,16.83
2018-09-08T23:40:30.697Z,16.93
2018-09-08T23:42:59.448Z,17.27
2018-09-08T23:45:28.123Z,15.50
2018-09-08T23:47:57.119Z,15.70
2018-09-08T23:50:26.256Z,16.40
2018-09-08T23:52:55.071Z,15.33
2018-09-08T23:55:24.120Z,15.90
2018-09-08T23:57:53.006Z,16.27
